Time;durP1;ratioP1;P1;durP2;ratioP2;P2;SDS_P1;SDS_P2;PMS_P1;PMS_P2;Temp;Humidity;BMP_temperature;BMP_pressure;BME280_temperature;BME280_humidity;BME280_pressure;Samples;Min_cycle;Max_cycle;Signal;HPM_P1;HPM_P2
2023/08/11 00:02:52;;;;;;;0.00;0.00;;;;;;;23.09;100.00;102074.19;10429698;28;20467;-78
2023/08/11 00:07:54;;;;;;;0.08;0.08;;;;;;;23.22;100.00;102069.75;10437171;28;20079;-78
2023/08/11 00:12:56;;;;;;;0.00;0.00;;;;;;;22.93;100.00;102082.22;10428605;28;20079;-78
2023/08/11 00:18:01;;;;;;;0.17;0.17;;;;;;;22.83;100.00;102085.78;10454361;28;20132;-78
2023/08/11 00:23:03;;;;;;;3.47;0.22;;;;;;;22.91;100.00;102080.47;10462955;28;20055;-78
2023/08/11 00:28:05;;;;;;;0.00;0.00;;;;;;;22.98;100.00;102082.16;10454329;28;20135;-78
2023/08/11 00:33:07;;;;;;;0.20;0.10;;;;;;;22.94;100.00;102065.53;10462901;28;20048;-78
2023/08/11 00:38:10;;;;;;;0.00;0.00;;;;;;;22.97;100.00;102077.81;10478283;28;20570;-78
2023/08/11 00:43:11;;;;;;;0.00;0.00;;;;;;;22.91;100.00;102065.59;10446227;28;20506;-77
2023/08/11 00:48:13;;;;;;;0.13;0.13;;;;;;;22.76;100.00;102071.81;10440240;28;20036;-78
2023/08/11 00:53:15;;;;;;;0.00;0.00;;;;;;;22.98;100.00;102063.78;10423233;28;20076;-78
2023/08/11 00:58:17;;;;;;;0.05;0.05;;;;;;;23.04;100.00;102049.72;10429475;28;20491;-78
2023/08/11 01:03:19;;;;;;;0.00;0.00;;;;;;;22.93;100.00;102047.19;10438331;28;20053;-78
2023/08/11 01:08:51;;;;;;;0.15;0.10;;;;;;;22.89;100.00;102048.09;10446226;28;20048;-78
2023/08/11 01:14:02;;;;;;;0.73;0.52;;;;;;;22.82;100.00;102045.50;10444211;28;20099;-78
2023/08/11 01:19:06;;;;;;;0.43;0.35;;;;;;;22.69;100.00;102037.72;10438142;28;20048;-78
2023/08/11 01:24:09;;;;;;;0.10;0.10;;;;;;;22.90;100.00;102039.31;10438439;28;20492;-78
2023/08/11 01:29:12;;;;;;;0.17;0.17;;;;;;;22.81;100.00;102043.78;10451214;28;20044;-78
2023/08/11 01:34:14;;;;;;;0.30;0.20;;;;;;;22.84;100.00;102040.25;10441930;28;20106;-78
2023/08/11 01:39:16;;;;;;;0.00;0.00;;;;;;;22.82;100.00;102040.22;10454652;28;20063;-78
2023/08/11 01:44:19;;;;;;;0.00;0.00;;;;;;;22.77;100.00;102036.78;10441921;28;20143;-77
2023/08/11 01:49:27;;;;;;;0.00;0.00;;;;;;;22.13;100.00;102027.47;10447316;28;20045;-78
2023/08/11 01:54:29;;;;;;;0.85;0.20;;;;;;;21.93;100.00;102019.72;10443555;28;20451;-78
2023/08/11 01:59:31;;;;;;;0.45;0.30;;;;;;;21.85;100.00;102009.25;10439628;28;20049;-77
2023/08/11 02:04:49;;;;;;;0.15;0.13;;;;;;;21.66;100.00;102005.78;10472510;28;20051;-79
2023/08/11 02:09:54;;;;;;;0.45;0.13;;;;;;;22.01;100.00;102004.78;10456068;28;20044;-77
2023/08/11 02:14:56;;;;;;;0.17;0.17;;;;;;;22.31;100.00;102002.88;10435182;28;20049;-77
2023/08/11 02:19:59;;;;;;;0.22;0.22;;;;;;;22.37;100.00;101999.38;10439663;28;20048;-77
2023/08/11 02:25:01;;;;;;;0.10;0.10;;;;;;;22.60;100.00;101996.66;10455037;28;20033;-77
2023/08/11 02:30:06;;;;;;;0.10;0.10;;;;;;;22.41;100.00;102004.63;10439614;28;20051;-77
2023/08/11 02:35:10;;;;;;;0.10;0.10;;;;;;;22.61;100.00;101998.34;10465100;28;20041;-77
2023/08/11 02:40:12;;;;;;;0.08;0.05;;;;;;;22.07;100.00;102007.41;10458031;28;20057;-77
2023/08/11 02:45:15;;;;;;;0.03;0.03;;;;;;;22.40;100.00;102000.25;10444073;28;20152;-77
2023/08/11 02:50:17;;;;;;;0.17;0.10;;;;;;;21.98;100.00;101996.94;10437999;28;20504;-77
2023/08/11 02:55:19;;;;;;;0.00;0.00;;;;;;;22.00;100.00;102000.44;10452770;28;20439;-76
2023/08/11 03:00:21;;;;;;;0.17;0.10;;;;;;;22.65;100.00;101994.84;10447804;28;20040;-76
2023/08/11 03:05:23;;;;;;;0.00;0.00;;;;;;;22.19;100.00;101996.84;10449379;28;20056;-77
2023/08/11 03:10:28;;;;;;;0.00;0.00;;;;;;;21.98;100.00;101994.31;10456979;28;20076;-77
2023/08/11 03:15:37;;;;;;;0.10;0.10;;;;;;;21.58;100.00;101994.44;10421579;28;20051;-76
2023/08/11 03:20:40;;;;;;;0.73;0.25;;;;;;;22.50;100.00;101988.81;10444601;28;20044;-77
2023/08/11 03:25:42;;;;;;;1.15;0.25;;;;;;;22.42;100.00;102000.22;10440024;28;20092;-77
2023/08/11 03:30:47;;;;;;;0.00;0.00;;;;;;;21.86;100.00;101998.72;10448039;28;20095;-77
2023/08/11 03:35:49;;;;;;;0.32;0.20;;;;;;;22.03;100.00;101995.16;10438193;28;20044;-77
2023/08/11 03:40:51;;;;;;;0.25;0.20;;;;;;;22.32;100.00;101999.38;10446339;28;20296;-77
2023/08/11 03:45:53;;;;;;;1.05;0.57;;;;;;;22.27;100.00;101990.69;10452439;28;20056;-77
2023/08/11 03:51:01;;;;;;;0.20;0.20;;;;;;;22.39;100.00;101993.25;10424237;28;20141;-77
2023/08/11 03:56:07;;;;;;;0.20;0.20;;;;;;;22.45;100.00;101995.84;10436287;28;20051;-77
2023/08/11 04:01:13;;;;;;;;;;;;;;;22.39;100.00;101988.00;10434861;28;20040;-77
2023/08/11 04:06:18;;;;;;;0.47;0.20;;;;;;;22.31;100.00;101984.50;10446911;28;19924;-77
2023/08/11 04:11:20;;;;;;;0.00;0.00;;;;;;;22.35;100.00;101986.25;10437461;28;20529;-77
2023/08/11 04:16:21;;;;;;;0.43;0.10;;;;;;;22.27;100.00;101982.81;10437835;28;20045;-76
2023/08/11 04:21:23;;;;;;;0.05;0.05;;;;;;;22.43;100.00;101981.88;10435952;28;20558;-77
2023/08/11 04:26:25;;;;;;;0.20;0.10;;;;;;;22.26;100.00;101996.81;10437862;28;20072;-77
2023/08/11 04:31:27;;;;;;;0.30;0.10;;;;;;;22.65;100.00;101979.09;10442678;28;20566;-77
2023/08/11 04:36:29;;;;;;;0.10;0.10;;;;;;;22.21;100.00;101978.44;10449102;28;20049;-77
2023/08/11 04:41:31;;;;;;;0.08;0.08;;;;;;;21.97;100.00;101979.47;10483290;28;20036;-77
2023/08/11 04:46:33;;;;;;;0.55;0.10;;;;;;;22.02;100.00;101975.94;10478993;28;20056;-77
2023/08/11 04:51:35;;;;;;;0.10;0.10;;;;;;;22.59;100.00;101971.25;10498483;28;20185;-77
2023/08/11 04:56:37;;;;;;;0.10;0.10;;;;;;;22.84;100.00;101971.03;10500509;28;20041;-77
2023/08/11 05:01:39;;;;;;;0.10;0.03;;;;;;;22.96;100.00;101969.19;10478381;28;20548;-77
2023/08/11 05:06:41;;;;;;;0.00;0.00;;;;;;;23.04;100.00;101965.63;10503576;28;20047;-77
2023/08/11 05:11:42;;;;;;;0.25;0.20;;;;;;;23.06;100.00;101969.97;10500220;28;20494;-77
2023/08/11 05:16:44;;;;;;;0.10;0.10;;;;;;;22.93;100.00;101970.97;10461988;28;20072;-77
2023/08/11 05:21:46;;;;;;;0.30;0.10;;;;;;;23.42;100.00;101967.88;10483798;28;20040;-77
2023/08/11 05:26:48;;;;;;;0.20;0.20;;;;;;;23.41;100.00;101965.28;10486257;28;20052;-78
2023/08/11 05:31:49;;;;;;;0.30;0.30;;;;;;;23.12;100.00;101958.53;10505769;28;20533;-77
2023/08/11 05:36:51;;;;;;;0.63;0.47;;;;;;;23.32;100.00;101953.09;10459950;28;20048;-77
2023/08/11 05:41:53;;;;;;;0.10;0.10;;;;;;;23.43;100.00;101955.63;10486734;28;20055;-77
2023/08/11 05:46:54;;;;;;;0.93;0.47;;;;;;;23.50;100.00;101953.78;10484807;28;20040;-77
2023/08/11 05:51:56;;;;;;;1.38;0.73;;;;;;;23.19;100.00;101959.38;10481241;28;20044;-77
2023/08/11 05:56:58;;;;;;;0.38;0.35;;;;;;;23.68;100.00;101945.69;10472157;28;20459;-77
2023/08/11 06:01:59;;;;;;;0.45;0.30;;;;;;;23.42;100.00;101941.59;10483479;28;20052;-78
2023/08/11 06:07:01;;;;;;;0.52;0.47;;;;;;;23.91;100.00;101939.25;10491574;28;20090;-77
2023/08/11 06:12:03;;;;;;;0.30;0.17;;;;;;;23.72;100.00;101939.47;10474721;28;20036;-78
2023/08/11 06:17:05;;;;;;;0.15;0.15;;;;;;;24.37;100.00;101932.47;10461652;28;20090;-78
2023/08/11 06:22:09;;;;;;;0.40;0.20;;;;;;;23.86;100.00;101935.81;10470711;28;20045;-77
2023/08/11 06:27:11;;;;;;;3.03;0.80;;;;;;;24.18;100.00;101937.13;10472566;28;20043;-78
2023/08/11 06:32:13;;;;;;;1.08;0.70;;;;;;;24.74;100.00;101936.31;10473319;28;20488;-78
2023/08/11 06:37:14;;;;;;;1.58;0.55;;;;;;;24.53;100.00;101948.91;10483250;28;20131;-78
2023/08/11 06:42:16;;;;;;;1.13;0.65;;;;;;;24.87;100.00;101953.63;10471388;28;20048;-78
2023/08/11 06:47:29;;;;;;;1.85;0.95;;;;;;;25.13;100.00;101950.53;10494330;28;20040;-78
2023/08/11 06:52:30;;;;;;;0.32;0.28;;;;;;;25.11;100.00;101947.06;10479948;28;20439;-78
2023/08/11 06:57:32;;;;;;;1.45;0.82;;;;;;;24.98;100.00;101949.03;10494099;28;20049;-78
2023/08/11 07:02:34;;;;;;;1.50;1.00;;;;;;;25.20;100.00;101948.66;10489219;28;20040;-78
2023/08/11 07:07:36;;;;;;;0.35;0.25;;;;;;;25.84;100.00;101945.63;10512966;28;20060;-78
2023/08/11 07:12:38;;;;;;;0.40;0.40;;;;;;;26.73;100.00;101947.13;10484250;28;20053;-78
2023/08/11 07:17:39;;;;;;;0.22;0.08;;;;;;;27.12;100.00;101948.78;10500209;28;20052;-78
2023/08/11 07:22:41;;;;;;;0.95;0.77;;;;;;;27.35;100.00;101954.28;10479461;28;20041;-78
2023/08/11 07:27:43;;;;;;;0.10;0.10;;;;;;;27.89;100.00;101958.97;10484829;28;20051;-78
2023/08/11 07:32:44;;;;;;;0.13;0.05;;;;;;;28.21;100.00;101954.47;10486366;28;20049;-78
2023/08/11 07:37:46;;;;;;;1.05;0.95;;;;;;;29.16;100.00;101957.50;10479308;28;20040;-78
2023/08/11 07:42:48;;;;;;;1.42;0.82;;;;;;;28.72;100.00;101966.13;10463043;28;20136;-78
2023/08/11 07:47:49;;;;;;;0.43;0.40;;;;;;;28.73;100.00;101963.41;10496691;28;20139;-78
2023/08/11 07:52:51;;;;;;;2.35;0.77;;;;;;;28.03;100.00;101962.06;10467223;28;20514;-78
2023/08/11 07:57:52;;;;;;;1.83;0.57;;;;;;;29.42;100.00;101956.59;10482919;28;20406;-78
2023/08/11 08:02:55;;;;;;;0.60;0.40;;;;;;;29.42;100.00;101968.09;10472356;28;20036;-78
2023/08/11 08:07:57;;;;;;;0.57;0.57;;;;;;;29.32;100.00;101966.69;10513274;28;20051;-78
2023/08/11 08:12:59;;;;;;;1.05;0.45;;;;;;;30.42;100.00;101962.47;10512889;28;20037;-77
2023/08/11 08:18:01;;;;;;;0.38;0.28;;;;;;;29.71;100.00;101968.78;10492292;28;20040;-78
2023/08/11 08:23:03;;;;;;;0.85;0.50;;;;;;;30.92;100.00;101966.63;10480641;28;20490;-78
2023/08/11 08:28:05;;;;;;;0.52;0.52;;;;;;;30.84;100.00;101971.41;10495127;28;20051;-78
2023/08/11 08:33:07;;;;;;;0.75;0.35;;;;;;;30.82;100.00;101967.94;10498720;28;20033;-78
2023/08/11 08:38:09;;;;;;;0.40;0.30;;;;;;;31.13;100.00;101962.16;10490645;28;20045;-78
2023/08/11 08:43:11;;;;;;;0.75;0.30;;;;;;;31.27;100.00;101961.56;10470391;28;20037;-78
2023/08/11 08:48:23;;;;;;;0.75;0.60;;;;;;;31.87;100.00;101965.09;10512548;28;20068;-78
2023/08/11 08:53:25;;;;;;;1.52;0.70;;;;;;;31.56;100.00;101959.34;10504133;28;20059;-78
2023/08/11 08:58:27;;;;;;;0.52;0.40;;;;;;;32.10;100.00;101953.31;10478442;28;20450;-78
2023/08/11 09:03:30;;;;;;;0.60;0.38;;;;;;;32.10;100.00;101953.31;10478661;28;20392;-78
2023/08/11 09:08:32;;;;;;;0.20;0.20;;;;;;;32.68;100.00;101954.03;10464792;28;20161;-78
2023/08/11 09:13:34;;;;;;;0.93;0.43;;;;;;;32.76;100.00;101957.16;10488134;28;20045;-78
2023/08/11 09:18:36;;;;;;;0.88;0.10;;;;;;;31.48;100.00;101961.50;10473121;28;20388;-78
2023/08/11 09:23:37;;;;;;;0.68;0.55;;;;;;;32.88;100.00;101956.53;10502465;28;20045;-78
2023/08/11 09:28:39;;;;;;;0.35;0.30;;;;;;;33.72;100.00;101946.75;10482392;28;20048;-77
2023/08/11 09:33:41;;;;;;;3.40;0.88;;;;;;;32.56;100.00;101945.72;10488938;28;20040;-78
2023/08/11 09:38:47;;;;;;;0.55;0.25;;;;;;;32.73;100.00;101952.84;10495422;28;20044;-78
2023/08/11 09:43:49;;;;;;;0.20;0.20;;;;;;;32.37;100.00;101950.22;10490210;28;20039;-78
2023/08/11 09:48:51;;;;;;;0.70;0.40;;;;;;;33.06;100.00;101948.53;10504708;28;20081;-78
2023/08/11 09:54:00;;;;;;;0.57;0.47;;;;;;;32.98;100.00;101951.59;10498335;28;20411;-78
2023/08/11 09:59:09;;;;;;;0.75;0.30;;;;;;;32.00;100.00;101958.22;10484600;28;20048;-79
2023/08/11 10:04:38;;;;;;;0.38;0.32;;;;;;;32.27;100.00;101956.06;10493783;28;20486;-78
2023/08/11 10:09:41;;;;;;;0.10;0.10;;;;;;;32.54;100.00;101947.59;10509328;28;20040;-79
2023/08/11 10:14:43;;;;;;;0.25;0.20;;;;;;;33.89;100.00;101947.66;10483195;28;20423;-78
2023/08/11 10:19:45;;;;;;;0.10;0.10;;;;;;;33.69;100.00;101941.59;10504700;28;20507;-78
2023/08/11 10:24:47;;;;;;;0.88;0.38;;;;;;;33.98;100.00;101941.78;10497639;28;20076;-78
2023/08/11 10:29:50;;;;;;;0.20;0.10;;;;;;;33.43;100.00;101929.69;10505810;28;20041;-78
2023/08/11 10:34:52;;;;;;;0.25;0.25;;;;;;;34.03;100.00;101939.69;10497649;28;20135;-78
2023/08/11 10:40:05;;;;;;;0.60;0.60;;;;;;;34.62;100.00;101930.94;10505609;28;20047;-78
2023/08/11 10:45:11;;;;;;;0.30;0.20;;;;;;;34.23;100.00;101925.19;10497958;28;20049;-78
2023/08/11 10:50:14;;;;;;;0.85;0.43;;;;;;;33.63;100.00;101931.22;10495456;28;20492;-78
2023/08/11 10:55:16;;;;;;;0.28;0.28;;;;;;;33.92;100.00;101926.94;10488287;28;20044;-78
2023/08/11 11:00:19;;;;;;;0.10;0.10;;;;;;;33.85;100.00;101931.78;10525549;28;20047;-79
2023/08/11 11:05:22;;;;;;;0.47;0.30;;;;;;;33.86;100.00;101946.00;10493276;28;20533;-78
2023/08/11 11:10:23;;;;;;;0.10;0.10;;;;;;;34.61;100.00;101939.91;10507158;28;20463;-79
2023/08/11 11:15:40;;;;;;;1.45;0.30;;;;;;;33.73;100.00;101936.94;10509353;28;20041;-78
2023/08/11 11:20:41;;;;;;;0.00;0.00;;;;;;;33.47;100.00;101931.22;10522382;28;20068;-79
2023/08/11 11:25:43;;;;;;;0.40;0.35;;;;;;;35.70;100.00;101923.41;10511000;28;20045;-78
2023/08/11 11:30:45;;;;;;;8.48;0.75;;;;;;;33.47;99.96;101923.22;10494879;28;20045;-78
2023/08/11 11:35:46;;;;;;;0.10;0.00;;;;;;;33.11;100.00;101925.09;10531672;28;20115;-78
2023/08/11 11:40:51;;;;;;;1.70;0.20;;;;;;;33.85;100.00;101915.72;10497529;28;20049;-79
2023/08/11 11:45:54;;;;;;;4.13;0.50;;;;;;;34.29;100.00;101922.13;10517099;28;20131;-78
2023/08/11 11:50:56;;;;;;;1.25;0.30;;;;;;;33.62;100.00;101916.16;10502982;28;20068;-79
2023/08/11 11:55:58;;;;;;;1.42;0.47;;;;;;;34.35;100.00;101917.38;10512501;28;20049;-78
2023/08/11 12:01:11;;;;;;;0.38;0.30;;;;;;;33.84;100.00;101911.38;10528691;28;20040;-78
2023/08/11 12:06:14;;;;;;;0.00;0.00;;;;;;;33.91;100.00;101908.34;10505824;28;20044;-79
2023/08/11 12:11:24;;;;;;;0.30;0.25;;;;;;;33.80;96.73;101895.56;10523248;28;20448;-78
2023/08/11 12:16:27;;;;;;;1.10;0.95;;;;;;;33.38;98.98;101900.56;10504639;28;20414;-79
2023/08/11 12:21:28;;;;;;;0.10;0.10;;;;;;;33.64;95.13;101906.25;10500430;28;20080;-79
2023/08/11 12:26:30;;;;;;;0.10;0.10;;;;;;;33.34;98.83;101899.00;10485384;28;20052;-79
2023/08/11 12:31:32;;;;;;;0.05;0.05;;;;;;;34.24;96.07;101896.59;10496607;28;20063;-79
2023/08/11 12:36:33;;;;;;;0.22;0.15;;;;;;;34.14;94.59;101889.13;10474465;28;20056;-78
2023/08/11 12:41:35;;;;;;;0.22;0.17;;;;;;;33.53;99.03;101894.38;10493108;28;20051;-78
2023/08/11 12:46:36;;;;;;;0.65;0.35;;;;;;;33.52;96.28;101891.75;10506742;28;20044;-79
2023/08/11 12:51:38;;;;;;;0.95;0.65;;;;;;;33.97;98.76;101887.44;10483033;28;20044;-79
2023/08/11 12:56:40;;;;;;;0.30;0.30;;;;;;;34.28;94.99;101887.47;10476883;28;20052;-78
2023/08/11 13:01:42;;;;;;;0.20;0.20;;;;;;;34.08;94.73;101880.63;10494461;28;20075;-78
2023/08/11 13:06:43;;;;;;;0.15;0.10;;;;;;;34.13;95.81;101879.41;10490045;28;20058;-79
2023/08/11 13:11:45;;;;;;;0.00;0.00;;;;;;;33.61;97.50;101882.38;10474786;28;20412;-79
2023/08/11 13:16:47;;;;;;;1.20;0.10;;;;;;;33.99;95.98;101868.66;10493193;28;20044;-80
2023/08/11 13:21:48;;;;;;;0.10;0.10;;;;;;;33.86;95.61;101857.81;10473810;28;20415;-79
2023/08/11 13:26:50;;;;;;;0.40;0.30;;;;;;;33.96;94.98;101858.97;10512296;28;20051;-79
2023/08/11 13:31:52;;;;;;;0.43;0.00;;;;;;;34.25;94.09;101858.22;10492788;28;20472;-79
2023/08/11 13:36:53;;;;;;;0.38;0.35;;;;;;;33.78;95.56;101865.38;10478097;28;20423;-80
2023/08/11 13:41:55;;;;;;;0.20;0.20;;;;;;;34.25;98.76;101852.88;10492867;28;20067;-80
2023/08/11 13:53:30;;;;;;;1.65;0.60;;;;;;;33.56;97.62;101855.03;10472579;28;20041;-80
2023/08/11 13:58:31;;;;;;;0.28;0.28;;;;;;;33.59;97.38;101854.88;10476219;28;20049;-79
2023/08/11 14:03:33;;;;;;;0.10;0.10;;;;;;;33.78;100.00;101844.84;10456234;28;20488;-79
2023/08/11 14:08:35;;;;;;;0.20;0.03;;;;;;;34.42;100.00;101834.03;10456465;28;20028;-80
2023/08/11 14:13:36;;;;;;;0.30;0.20;;;;;;;33.89;99.29;101838.06;10475241;28;20115;-79
2023/08/11 14:18:44;;;;;;;0.25;0.22;;;;;;;34.15;99.67;101841.88;10456905;28;20056;-80
2023/08/11 14:23:46;;;;;;;0.35;0.32;;;;;;;34.05;100.00;101852.25;10455296;28;20044;-79
2023/08/11 14:28:48;;;;;;;0.10;0.10;;;;;;;33.98;100.00;101845.56;10458674;28;20051;-79
2023/08/11 14:33:50;;;;;;;1.80;0.35;;;;;;;33.31;100.00;101845.78;10479053;28;20502;-79
2023/08/11 14:38:52;;;;;;;6.10;1.17;;;;;;;34.45;99.71;101830.31;10464460;28;20061;-79
2023/08/11 14:43:53;;;;;;;0.65;0.30;;;;;;;34.04;100.00;101834.50;10450012;28;20045;-79
2023/08/11 14:48:55;;;;;;;0.00;0.00;;;;;;;33.84;100.00;101833.88;10431169;28;20055;-79
2023/08/11 14:53:56;;;;;;;0.65;0.30;;;;;;;33.80;100.00;101823.41;10445958;28;20053;-79
2023/08/11 14:58:59;;;;;;;14.52;0.73;;;;;;;34.42;100.00;101817.09;10455439;28;20057;-80
2023/08/11 15:04:01;;;;;;;0.22;0.15;;;;;;;34.34;100.00;101814.88;10478350;28;20041;-79
2023/08/11 15:09:03;;;;;;;0.75;0.57;;;;;;;33.77;100.00;101821.75;10474547;28;20109;-80
2023/08/11 15:14:05;;;;;;;0.20;0.15;;;;;;;34.03;100.00;101807.84;10492264;28;20050;-79
2023/08/11 15:19:06;;;;;;;0.25;0.17;;;;;;;34.07;100.00;101818.25;10471075;28;20045;-79
2023/08/11 15:24:08;;;;;;;0.10;0.10;;;;;;;33.67;100.00;101815.22;10471130;28;20037;-79
2023/08/11 15:29:10;;;;;;;0.30;0.30;;;;;;;33.59;100.00;101817.47;10466068;28;20041;-79
2023/08/11 15:34:12;;;;;;;0.47;0.43;;;;;;;33.59;100.00;101814.81;10485636;28;20044;-79
2023/08/11 15:39:13;;;;;;;0.10;0.10;;;;;;;33.74;100.00;101813.03;10515411;28;20555;-79
2023/08/11 15:44:15;;;;;;;0.10;0.10;;;;;;;34.46;100.00;101803.44;10486847;28;20055;-79
2023/08/11 15:49:17;;;;;;;0.00;0.00;;;;;;;34.37;100.00;101800.47;10483394;28;20579;-79
2023/08/11 15:54:19;;;;;;;1.27;0.63;;;;;;;34.11;100.00;101787.72;10482890;28;20128;-79
2023/08/11 15:59:21;;;;;;;0.55;0.20;;;;;;;33.49;100.00;101791.28;10441600;28;20050;-80
2023/08/11 16:04:23;;;;;;;0.28;0.25;;;;;;;34.04;100.00;101775.66;10461253;28;20044;-80
2023/08/11 16:09:24;;;;;;;0.28;0.10;;;;;;;33.98;100.00;101771.53;10456095;28;20053;-79
2023/08/11 16:14:27;;;;;;;0.45;0.38;;;;;;;33.65;100.00;101775.25;10509060;28;20119;-80
2023/08/11 16:19:29;;;;;;;2.17;0.30;;;;;;;33.57;100.00;101769.50;10516408;28;20086;-80
2023/08/11 16:24:31;;;;;;;0.00;0.00;;;;;;;33.69;100.00;101781.28;10538721;28;20096;-80
2023/08/11 16:29:38;;;;;;;0.17;0.17;;;;;;;33.83;100.00;101762.63;10518548;28;20052;-79
2023/08/11 16:34:39;;;;;;;0.40;0.20;;;;;;;33.99;100.00;101770.59;10518766;28;20055;-80
2023/08/11 16:39:41;;;;;;;0.10;0.10;;;;;;;33.37;100.00;101789.34;10538276;28;20041;-79
2023/08/11 16:44:43;;;;;;;0.63;0.20;;;;;;;33.75;100.00;101772.91;10524920;28;20035;-79
2023/08/11 16:49:45;;;;;;;0.52;0.20;;;;;;;33.78;100.00;101764.69;10523729;28;20048;-79
2023/08/11 16:54:46;;;;;;;0.30;0.10;;;;;;;33.47;100.00;101766.47;10533178;28;20108;-79
2023/08/11 16:59:48;;;;;;;0.30;0.30;;;;;;;33.42;100.00;101765.03;10519659;28;20060;-79
2023/08/11 17:04:50;;;;;;;0.03;0.00;;;;;;;34.44;100.00;101746.50;10534063;28;20045;-79
2023/08/11 17:09:52;;;;;;;3.35;0.50;;;;;;;34.28;100.00;101740.38;10506533;28;20487;-79
2023/08/11 17:14:54;;;;;;;0.00;0.00;;;;;;;33.69;100.00;101736.69;10501965;28;20044;-79
2023/08/11 17:19:55;;;;;;;0.10;0.10;;;;;;;34.53;100.00;101739.72;10491330;28;20415;-79
2023/08/11 17:24:57;;;;;;;3.03;0.85;;;;;;;33.23;100.00;101752.69;10515322;28;20067;-79
2023/08/11 17:29:59;;;;;;;0.30;0.20;;;;;;;33.72;100.00;101737.47;10519638;28;20048;-79
2023/08/11 17:35:01;;;;;;;0.65;0.30;;;;;;;34.12;100.00;101748.47;10513514;28;20487;-79
2023/08/11 17:40:04;;;;;;;0.00;0.00;;;;;;;33.80;100.00;101736.06;10513031;28;20056;-79
2023/08/11 17:45:06;;;;;;;2.78;0.65;;;;;;;34.08;100.00;101739.75;10512246;28;20059;-79
2023/08/11 17:50:08;;;;;;;1.08;0.40;;;;;;;33.65;100.00;101742.31;10517193;28;20048;-79
2023/08/11 17:55:10;;;;;;;0.03;0.00;;;;;;;33.68;100.00;101728.78;10519814;28;20045;-79
2023/08/11 18:00:13;;;;;;;0.20;0.00;;;;;;;34.11;100.00;101734.25;10517426;28;20059;-79
2023/08/11 18:05:16;;;;;;;0.00;0.00;;;;;;;34.08;100.00;101745.13;10529468;28;20068;-79
2023/08/11 18:10:18;;;;;;;0.00;0.00;;;;;;;34.32;100.00;101747.25;10538540;28;20098;-78
2023/08/11 18:15:21;;;;;;;0.43;0.20;;;;;;;34.07;100.00;101747.88;10535918;28;20048;-78
2023/08/11 18:20:23;;;;;;;0.10;0.10;;;;;;;33.95;100.00;101747.69;10532187;28;20044;-79
2023/08/11 18:25:24;;;;;;;0.35;0.30;;;;;;;32.25;100.00;101763.31;10508390;28;20044;-78
2023/08/11 18:30:26;;;;;;;0.30;0.30;;;;;;;32.65;100.00;101762.13;10488258;28;20450;-78
2023/08/11 18:35:28;;;;;;;0.10;0.10;;;;;;;32.15;100.00;101758.50;10500606;28;20052;-78
2023/08/11 18:40:29;;;;;;;0.10;0.10;;;;;;;32.68;100.00;101765.47;10471337;28;20059;-78
2023/08/11 18:45:31;;;;;;;0.10;0.10;;;;;;;32.19;100.00;101752.94;10531513;28;20086;-78
2023/08/11 18:50:33;;;;;;;0.10;0.10;;;;;;;32.23;100.00;101769.66;10503348;28;20048;-79
2023/08/11 18:55:34;;;;;;;0.15;0.15;;;;;;;31.91;100.00;101772.13;10490119;28;20044;-78
2023/08/11 19:00:38;;;;;;;0.10;0.10;;;;;;;31.37;100.00;101780.09;10510263;28;20116;-78
2023/08/11 19:05:40;;;;;;;0.30;0.30;;;;;;;31.10;100.00;101775.16;10523297;28;20044;-78
2023/08/11 19:10:43;;;;;;;0.35;0.25;;;;;;;31.36;100.00;101770.38;10508514;28;20578;-78
2023/08/11 19:15:49;;;;;;;0.10;0.05;;;;;;;31.52;100.00;101782.03;10513696;28;20399;-78
2023/08/11 19:20:50;;;;;;;0.10;0.08;;;;;;;30.91;100.00;101776.00;10496673;28;20059;-78
2023/08/11 19:25:52;;;;;;;0.00;0.00;;;;;;;30.96;100.00;101776.63;10497329;28;20036;-80
2023/08/11 19:30:59;;;;;;;0.00;0.00;;;;;;;31.19;100.00;101788.03;10495604;28;20053;-79
2023/08/11 19:36:01;;;;;;;0.10;0.10;;;;;;;31.45;100.00;101781.44;10502628;28;20385;-79
2023/08/11 19:41:03;;;;;;;1.27;0.10;;;;;;;31.38;100.00;101792.50;10501623;28;20044;-79
2023/08/11 19:46:05;;;;;;;0.52;0.20;;;;;;;30.94;100.00;101794.47;10503121;28;20044;-79
2023/08/11 19:51:07;;;;;;;0.03;0.00;;;;;;;31.21;100.00;101794.16;10501677;28;20446;-80
2023/08/11 19:56:09;;;;;;;0.00;0.00;;;;;;;31.16;100.00;101813.00;10522999;28;20052;-79
2023/08/11 20:01:12;;;;;;;0.22;0.13;;;;;;;30.56;100.00;101791.78;10521258;28;20040;-79
2023/08/11 20:06:14;;;;;;;0.85;0.30;;;;;;;30.98;100.00;101795.19;10548342;28;20055;-79
2023/08/11 20:11:15;;;;;;;0.32;0.22;;;;;;;31.10;100.00;101796.44;10498812;28;20488;-79
2023/08/11 20:16:17;;;;;;;0.10;0.03;;;;;;;30.50;100.00;101791.97;10498325;28;20478;-79
2023/08/11 20:21:19;;;;;;;0.45;0.28;;;;;;;30.63;100.00;101797.66;10525179;28;20036;-79
2023/08/11 20:26:21;;;;;;;0.00;0.00;;;;;;;30.15;100.00;101794.41;10536378;28;20059;-78
2023/08/11 20:31:22;;;;;;;0.17;0.10;;;;;;;29.89;100.00;101791.03;10500020;28;20044;-79
2023/08/11 20:36:24;;;;;;;0.28;0.13;;;;;;;30.33;100.00;101798.94;10501010;28;20083;-79
2023/08/11 20:41:26;;;;;;;0.00;0.00;;;;;;;30.28;100.00;101800.91;10481870;28;20048;-79
2023/08/11 20:46:27;;;;;;;0.38;0.22;;;;;;;30.07;100.00;101808.88;10501555;28;20388;-79
2023/08/11 20:51:29;;;;;;;0.10;0.05;;;;;;;29.56;100.00;101810.06;10471075;28;20046;-79
2023/08/11 20:56:31;;;;;;;0.43;0.40;;;;;;;29.13;100.00;101802.84;10465086;28;20048;-79
2023/08/11 21:01:32;;;;;;;0.03;0.00;;;;;;;29.46;100.00;101808.69;10497354;28;20043;-78
2023/08/11 21:06:34;;;;;;;0.35;0.32;;;;;;;29.58;100.00;101811.72;10485292;28;20044;-79
2023/08/11 21:11:35;;;;;;;0.25;0.10;;;;;;;29.57;100.00;101812.66;10506288;28;20488;-78
2023/08/11 21:16:41;;;;;;;0.10;0.10;;;;;;;29.96;100.00;101808.47;10526206;28;20517;-79
2023/08/11 21:21:44;;;;;;;0.38;0.22;;;;;;;29.98;100.00;101811.91;10473106;28;20064;-78
2023/08/11 21:26:46;;;;;;;0.30;0.10;;;;;;;30.11;100.00;101800.78;10483816;28;20036;-78
2023/08/11 21:31:48;;;;;;;0.10;0.10;;;;;;;30.04;100.00;101806.38;10480202;28;20040;-78
2023/08/11 21:36:49;;;;;;;0.28;0.00;;;;;;;28.97;100.00;101818.44;10496464;28;20049;-78
2023/08/11 21:41:51;;;;;;;0.00;0.00;;;;;;;29.60;100.00;101816.97;10480015;28;20479;-79
2023/08/11 21:46:54;;;;;;;0.10;0.10;;;;;;;29.42;100.00;101826.53;10462938;28;20056;-79
2023/08/11 21:51:56;;;;;;;0.00;0.00;;;;;;;29.41;100.00;101808.91;10490259;28;20048;-81
2023/08/11 21:56:57;;;;;;;0.05;0.05;;;;;;;29.11;100.00;101819.75;10477388;28;20514;-80
2023/08/11 22:01:59;;;;;;;0.40;0.30;;;;;;;29.17;100.00;101823.91;10489210;28;20097;-80
2023/08/11 22:07:01;;;;;;;0.10;0.10;;;;;;;28.68;100.00;101822.16;10482796;28;20044;-80
2023/08/11 22:12:03;;;;;;;0.00;0.00;;;;;;;28.67;100.00;101828.38;10490246;28;20066;-80
2023/08/11 22:17:05;;;;;;;0.00;0.00;;;;;;;29.26;100.00;101823.56;10484326;28;20052;-80
2023/08/11 22:22:07;;;;;;;0.17;0.17;;;;;;;29.33;100.00;101830.41;10483152;28;20064;-80
2023/08/11 22:27:09;;;;;;;0.20;0.10;;;;;;;29.73;100.00;101820.88;10483664;28;20046;-80
2023/08/11 22:32:12;;;;;;;0.10;0.10;;;;;;;29.11;100.00;101825.91;10499851;28;20127;-80
2023/08/11 22:37:17;;;;;;;0.08;0.08;;;;;;;28.76;100.00;101821.88;10491782;28;20052;-80
2023/08/11 22:42:22;;;;;;;0.15;0.13;;;;;;;28.58;100.00;101831.34;10505486;28;20131;-80
2023/08/11 22:47:24;;;;;;;0.10;0.10;;;;;;;28.69;100.00;101823.00;10507701;28;20419;-80
2023/08/11 22:52:26;;;;;;;0.10;0.10;;;;;;;28.42;100.00;101815.13;10499014;28;20450;-80
2023/08/11 22:57:27;;;;;;;0.20;0.20;;;;;;;28.59;100.00;101809.22;10477244;28;20134;-80
2023/08/11 23:02:29;;;;;;;0.17;0.17;;;;;;;28.47;100.00;101800.78;10488599;28;20053;-79